sensor_id;sensor_type;location;lat;lon;timestamp;P1;durP1;ratioP1;P2;durP2;ratioP2
8474;SDS011;4274;52.012;8.448;2023-08-01T00:02:26;41.40;;;2.57;;
8474;SDS011;4274;52.012;8.448;2023-08-01T00:04:51;41.77;;;2.80;;
8474;SDS011;4274;52.012;8.448;2023-08-01T00:07:17;41.47;;;2.87;;
8474;SDS011;4274;52.012;8.448;2023-08-01T00:09:42;43.90;;;3.03;;
8474;SDS011;4274;52.012;8.448;2023-08-01T00:12:08;41.60;;;2.90;;
8474;SDS011;4274;52.012;8.448;2023-08-01T00:14:35;43.30;;;3.10;;
8474;SDS011;4274;52.012;8.448;2023-08-01T00:17:01;42.60;;;2.70;;
8474;SDS011;4274;52.012;8.448;2023-08-01T00:19:27;43.83;;;3.10;;
8474;SDS011;4274;52.012;8.448;2023-08-01T00:21:52;42.77;;;3.30;;
8474;SDS011;4274;52.012;8.448;2023-08-01T00:24:18;41.50;;;3.10;;
8474;SDS011;4274;52.012;8.448;2023-08-01T00:26:43;43.20;;;3.53;;
8474;SDS011;4274;52.012;8.448;2023-08-01T00:29:09;42.67;;;3.30;;
8474;SDS011;4274;52.012;8.448;2023-08-01T00:31:35;42.70;;;3.33;;
8474;SDS011;4274;52.012;8.448;2023-08-01T00:34:00;48.50;;;3.67;;
8474;SDS011;4274;52.012;8.448;2023-08-01T00:36:26;44.67;;;3.60;;
8474;SDS011;4274;52.012;8.448;2023-08-01T00:38:51;43.50;;;3.10;;
8474;SDS011;4274;52.012;8.448;2023-08-01T00:41:17;45.93;;;3.43;;
8474;SDS011;4274;52.012;8.448;2023-08-01T00:43:42;43.27;;;3.43;;
8474;SDS011;4274;52.012;8.448;2023-08-01T00:46:08;43.50;;;3.30;;
8474;SDS011;4274;52.012;8.448;2023-08-01T00:48:34;42.67;;;3.77;;
8474;SDS011;4274;52.012;8.448;2023-08-01T00:51:01;42.33;;;3.13;;
8474;SDS011;4274;52.012;8.448;2023-08-01T00:53:29;44.50;;;3.43;;
8474;SDS011;4274;52.012;8.448;2023-08-01T00:55:55;48.30;;;3.97;;
8474;SDS011;4274;52.012;8.448;2023-08-01T00:58:22;42.20;;;3.30;;
8474;SDS011;4274;52.012;8.448;2023-08-01T01:00:48;56.27;;;3.50;;
8474;SDS011;4274;52.012;8.448;2023-08-01T01:03:14;41.80;;;3.50;;
8474;SDS011;4274;52.012;8.448;2023-08-01T01:05:43;41.60;;;3.30;;
8474;SDS011;4274;52.012;8.448;2023-08-01T01:08:23;43.47;;;3.87;;
8474;SDS011;4274;52.012;8.448;2023-08-01T01:10:48;43.00;;;3.53;;
8474;SDS011;4274;52.012;8.448;2023-08-01T01:13:14;43.63;;;3.70;;
8474;SDS011;4274;52.012;8.448;2023-08-01T01:15:39;42.67;;;3.50;;
8474;SDS011;4274;52.012;8.448;2023-08-01T01:18:05;44.67;;;3.40;;
8474;SDS011;4274;52.012;8.448;2023-08-01T01:20:34;41.60;;;2.90;;
8474;SDS011;4274;52.012;8.448;2023-08-01T01:23:00;42.40;;;3.20;;
8474;SDS011;4274;52.012;8.448;2023-08-01T01:25:28;43.00;;;3.60;;
8474;SDS011;4274;52.012;8.448;2023-08-01T01:27:54;41.60;;;3.07;;
8474;SDS011;4274;52.012;8.448;2023-08-01T01:30:21;42.43;;;3.30;;
8474;SDS011;4274;52.012;8.448;2023-08-01T01:32:47;41.33;;;2.80;;
8474;SDS011;4274;52.012;8.448;2023-08-01T01:35:14;42.20;;;3.53;;
8474;SDS011;4274;52.012;8.448;2023-08-01T01:37:39;46.90;;;3.70;;
8474;SDS011;4274;52.012;8.448;2023-08-01T01:40:05;44.57;;;3.57;;
8474;SDS011;4274;52.012;8.448;2023-08-01T01:42:31;44.30;;;3.70;;
8474;SDS011;4274;52.012;8.448;2023-08-01T01:44:57;42.10;;;3.30;;
8474;SDS011;4274;52.012;8.448;2023-08-01T01:47:22;42.07;;;3.27;;
8474;SDS011;4274;52.012;8.448;2023-08-01T01:49:48;42.67;;;3.50;;
8474;SDS011;4274;52.012;8.448;2023-08-01T01:52:13;41.77;;;3.33;;
8474;SDS011;4274;52.012;8.448;2023-08-01T01:54:39;41.30;;;3.07;;
8474;SDS011;4274;52.012;8.448;2023-08-01T01:57:05;49.90;;;3.30;;
8474;SDS011;4274;52.012;8.448;2023-08-01T01:59:30;42.97;;;3.33;;
8474;SDS011;4274;52.012;8.448;2023-08-01T02:01:56;44.57;;;3.10;;
8474;SDS011;4274;52.012;8.448;2023-08-01T02:04:21;42.80;;;3.80;;
8474;SDS011;4274;52.012;8.448;2023-08-01T02:06:47;50.33;;;3.80;;
8474;SDS011;4274;52.012;8.448;2023-08-01T02:09:13;43.10;;;3.67;;
8474;SDS011;4274;52.012;8.448;2023-08-01T02:11:38;43.83;;;3.10;;
8474;SDS011;4274;52.012;8.448;2023-08-01T02:14:04;43.00;;;3.30;;
8474;SDS011;4274;52.012;8.448;2023-08-01T02:16:30;43.07;;;3.60;;
8474;SDS011;4274;52.012;8.448;2023-08-01T02:18:55;45.07;;;3.47;;
8474;SDS011;4274;52.012;8.448;2023-08-01T02:21:21;58.93;;;4.27;;
8474;SDS011;4274;52.012;8.448;2023-08-01T02:23:46;43.97;;;4.03;;
8474;SDS011;4274;52.012;8.448;2023-08-01T02:26:12;42.80;;;3.60;;
8474;SDS011;4274;52.012;8.448;2023-08-01T02:28:38;43.40;;;3.33;;
8474;SDS011;4274;52.012;8.448;2023-08-01T02:31:03;42.07;;;3.03;;
8474;SDS011;4274;52.012;8.448;2023-08-01T02:33:29;42.10;;;3.30;;
8474;SDS011;4274;52.012;8.448;2023-08-01T02:35:54;42.77;;;3.80;;
8474;SDS011;4274;52.012;8.448;2023-08-01T02:38:20;42.03;;;3.63;;
8474;SDS011;4274;52.012;8.448;2023-08-01T02:40:45;43.47;;;3.73;;
8474;SDS011;4274;52.012;8.448;2023-08-01T02:43:11;41.57;;;3.20;;
8474;SDS011;4274;52.012;8.448;2023-08-01T02:45:37;45.53;;;3.27;;
8474;SDS011;4274;52.012;8.448;2023-08-01T02:48:02;42.67;;;3.90;;
8474;SDS011;4274;52.012;8.448;2023-08-01T02:50:28;42.53;;;3.80;;
8474;SDS011;4274;52.012;8.448;2023-08-01T02:52:53;43.60;;;3.50;;
8474;SDS011;4274;52.012;8.448;2023-08-01T02:55:19;46.47;;;4.30;;
8474;SDS011;4274;52.012;8.448;2023-08-01T02:57:44;43.27;;;3.90;;
8474;SDS011;4274;52.012;8.448;2023-08-01T03:00:10;44.17;;;4.87;;
8474;SDS011;4274;52.012;8.448;2023-08-01T03:02:37;43.37;;;4.30;;
8474;SDS011;4274;52.012;8.448;2023-08-01T03:05:05;46.20;;;4.60;;
8474;SDS011;4274;52.012;8.448;2023-08-01T03:07:32;44.87;;;4.63;;
8474;SDS011;4274;52.012;8.448;2023-08-01T03:09:58;45.60;;;4.73;;
8474;SDS011;4274;52.012;8.448;2023-08-01T03:12:23;43.30;;;4.13;;
8474;SDS011;4274;52.012;8.448;2023-08-01T03:14:49;48.73;;;5.20;;
8474;SDS011;4274;52.012;8.448;2023-08-01T03:17:14;45.53;;;5.30;;
8474;SDS011;4274;52.012;8.448;2023-08-01T03:19:40;47.27;;;5.87;;
8474;SDS011;4274;52.012;8.448;2023-08-01T03:22:06;48.00;;;6.23;;
8474;SDS011;4274;52.012;8.448;2023-08-01T03:24:32;44.90;;;4.83;;
8474;SDS011;4274;52.012;8.448;2023-08-01T03:26:58;47.10;;;5.13;;
8474;SDS011;4274;52.012;8.448;2023-08-01T03:29:23;47.20;;;5.87;;
8474;SDS011;4274;52.012;8.448;2023-08-01T03:31:49;52.90;;;5.37;;
8474;SDS011;4274;52.012;8.448;2023-08-01T03:34:14;46.27;;;5.50;;
8474;SDS011;4274;52.012;8.448;2023-08-01T03:36:40;48.00;;;5.73;;
8474;SDS011;4274;52.012;8.448;2023-08-01T03:39:05;48.90;;;6.57;;
8474;SDS011;4274;52.012;8.448;2023-08-01T03:41:31;46.60;;;6.47;;
8474;SDS011;4274;52.012;8.448;2023-08-01T03:43:57;56.10;;;6.50;;
8474;SDS011;4274;52.012;8.448;2023-08-01T03:46:23;50.27;;;6.40;;
8474;SDS011;4274;52.012;8.448;2023-08-01T03:48:48;48.87;;;7.30;;
8474;SDS011;4274;52.012;8.448;2023-08-01T03:51:14;56.03;;;6.60;;
8474;SDS011;4274;52.012;8.448;2023-08-01T03:53:40;53.93;;;7.10;;
8474;SDS011;4274;52.012;8.448;2023-08-01T03:56:07;53.70;;;8.73;;
8474;SDS011;4274;52.012;8.448;2023-08-01T03:58:32;56.43;;;8.97;;
8474;SDS011;4274;52.012;8.448;2023-08-01T04:00:58;56.77;;;8.73;;
8474;SDS011;4274;52.012;8.448;2023-08-01T04:03:23;55.80;;;9.10;;
8474;SDS011;4274;52.012;8.448;2023-08-01T04:05:49;52.63;;;8.70;;
8474;SDS011;4274;52.012;8.448;2023-08-01T04:08:14;55.60;;;9.20;;
8474;SDS011;4274;52.012;8.448;2023-08-01T04:10:40;59.70;;;9.20;;
8474;SDS011;4274;52.012;8.448;2023-08-01T04:13:06;62.10;;;9.33;;
8474;SDS011;4274;52.012;8.448;2023-08-01T04:15:31;52.23;;;9.30;;
8474;SDS011;4274;52.012;8.448;2023-08-01T04:17:57;59.10;;;9.17;;
8474;SDS011;4274;52.012;8.448;2023-08-01T04:20:22;59.03;;;8.33;;
8474;SDS011;4274;52.012;8.448;2023-08-01T04:22:48;57.17;;;8.17;;
8474;SDS011;4274;52.012;8.448;2023-08-01T04:25:13;55.20;;;8.07;;
8474;SDS011;4274;52.012;8.448;2023-08-01T04:27:39;51.47;;;8.00;;
8474;SDS011;4274;52.012;8.448;2023-08-01T04:30:05;50.87;;;7.80;;
8474;SDS011;4274;52.012;8.448;2023-08-01T04:32:31;57.63;;;7.93;;
8474;SDS011;4274;52.012;8.448;2023-08-01T04:34:56;51.90;;;7.33;;
8474;SDS011;4274;52.012;8.448;2023-08-01T04:37:22;56.93;;;8.50;;
8474;SDS011;4274;52.012;8.448;2023-08-01T04:39:48;46.97;;;6.57;;
8474;SDS011;4274;52.012;8.448;2023-08-01T04:42:14;56.43;;;7.00;;
8474;SDS011;4274;52.012;8.448;2023-08-01T04:44:39;49.83;;;6.50;;
8474;SDS011;4274;52.012;8.448;2023-08-01T04:47:05;50.07;;;6.40;;
8474;SDS011;4274;52.012;8.448;2023-08-01T04:49:30;51.83;;;6.70;;
8474;SDS011;4274;52.012;8.448;2023-08-01T04:51:56;49.70;;;6.57;;
8474;SDS011;4274;52.012;8.448;2023-08-01T04:54:21;48.50;;;6.60;;
8474;SDS011;4274;52.012;8.448;2023-08-01T04:56:47;53.60;;;6.57;;
8474;SDS011;4274;52.012;8.448;2023-08-01T04:59:13;57.17;;;6.53;;
8474;SDS011;4274;52.012;8.448;2023-08-01T05:01:38;52.10;;;6.40;;
8474;SDS011;4274;52.012;8.448;2023-08-01T05:04:04;52.67;;;5.67;;
8474;SDS011;4274;52.012;8.448;2023-08-01T05:06:29;49.60;;;6.77;;
8474;SDS011;4274;52.012;8.448;2023-08-01T05:08:55;70.50;;;7.27;;
8474;SDS011;4274;52.012;8.448;2023-08-01T05:11:20;50.77;;;7.40;;
8474;SDS011;4274;52.012;8.448;2023-08-01T05:13:46;52.33;;;6.87;;
8474;SDS011;4274;52.012;8.448;2023-08-01T05:16:12;53.13;;;6.97;;
8474;SDS011;4274;52.012;8.448;2023-08-01T05:18:38;56.63;;;7.77;;
8474;SDS011;4274;52.012;8.448;2023-08-01T05:21:03;57.00;;;7.30;;
8474;SDS011;4274;52.012;8.448;2023-08-01T05:23:29;52.67;;;8.07;;
8474;SDS011;4274;52.012;8.448;2023-08-01T05:25:54;58.47;;;8.90;;
8474;SDS011;4274;52.012;8.448;2023-08-01T05:28:20;53.10;;;8.10;;
8474;SDS011;4274;52.012;8.448;2023-08-01T05:30:46;61.97;;;9.50;;
8474;SDS011;4274;52.012;8.448;2023-08-01T05:33:12;51.70;;;7.77;;
8474;SDS011;4274;52.012;8.448;2023-08-01T05:35:37;62.70;;;9.50;;
8474;SDS011;4274;52.012;8.448;2023-08-01T05:38:03;64.53;;;10.47;;
8474;SDS011;4274;52.012;8.448;2023-08-01T05:40:28;56.80;;;9.30;;
8474;SDS011;4274;52.012;8.448;2023-08-01T05:42:54;57.23;;;9.30;;
8474;SDS011;4274;52.012;8.448;2023-08-01T05:45:19;78.13;;;9.33;;
8474;SDS011;4274;52.012;8.448;2023-08-01T05:47:45;56.63;;;8.90;;
8474;SDS011;4274;52.012;8.448;2023-08-01T05:50:11;59.53;;;9.70;;
8474;SDS011;4274;52.012;8.448;2023-08-01T05:52:37;57.00;;;10.83;;
8474;SDS011;4274;52.012;8.448;2023-08-01T05:55:03;61.27;;;10.03;;
8474;SDS011;4274;52.012;8.448;2023-08-01T05:57:29;51.97;;;9.00;;
8474;SDS011;4274;52.012;8.448;2023-08-01T05:59:54;65.77;;;10.00;;
8474;SDS011;4274;52.012;8.448;2023-08-01T06:02:20;54.67;;;10.37;;
8474;SDS011;4274;52.012;8.448;2023-08-01T06:04:45;61.37;;;11.50;;
8474;SDS011;4274;52.012;8.448;2023-08-01T06:07:11;57.23;;;10.60;;
8474;SDS011;4274;52.012;8.448;2023-08-01T06:09:36;62.27;;;10.53;;
8474;SDS011;4274;52.012;8.448;2023-08-01T06:12:02;57.93;;;8.93;;
8474;SDS011;4274;52.012;8.448;2023-08-01T06:14:28;80.30;;;10.63;;
8474;SDS011;4274;52.012;8.448;2023-08-01T06:16:54;66.80;;;10.97;;
8474;SDS011;4274;52.012;8.448;2023-08-01T06:19:19;62.60;;;10.90;;
8474;SDS011;4274;52.012;8.448;2023-08-01T06:21:45;62.27;;;13.40;;
8474;SDS011;4274;52.012;8.448;2023-08-01T06:24:11;62.93;;;11.20;;
8474;SDS011;4274;52.012;8.448;2023-08-01T06:26:36;64.07;;;10.63;;
8474;SDS011;4274;52.012;8.448;2023-08-01T06:29:02;60.23;;;10.50;;
8474;SDS011;4274;52.012;8.448;2023-08-01T06:31:27;84.63;;;11.63;;
8474;SDS011;4274;52.012;8.448;2023-08-01T06:33:53;70.40;;;10.90;;
8474;SDS011;4274;52.012;8.448;2023-08-01T06:36:18;64.27;;;11.13;;
8474;SDS011;4274;52.012;8.448;2023-08-01T06:38:44;67.90;;;12.40;;
8474;SDS011;4274;52.012;8.448;2023-08-01T06:41:09;59.67;;;12.10;;
8474;SDS011;4274;52.012;8.448;2023-08-01T06:43:35;64.43;;;12.30;;
8474;SDS011;4274;52.012;8.448;2023-08-01T06:46:03;66.80;;;10.50;;
8474;SDS011;4274;52.012;8.448;2023-08-01T06:48:29;72.40;;;10.60;;
8474;SDS011;4274;52.012;8.448;2023-08-01T06:50:54;64.57;;;11.57;;
8474;SDS011;4274;52.012;8.448;2023-08-01T06:53:20;56.43;;;11.13;;
8474;SDS011;4274;52.012;8.448;2023-08-01T06:55:46;59.47;;;10.40;;
8474;SDS011;4274;52.012;8.448;2023-08-01T06:58:11;65.30;;;11.17;;
8474;SDS011;4274;52.012;8.448;2023-08-01T07:00:37;57.27;;;11.10;;
8474;SDS011;4274;52.012;8.448;2023-08-01T07:03:03;62.23;;;10.57;;
8474;SDS011;4274;52.012;8.448;2023-08-01T07:05:28;56.90;;;10.87;;
8474;SDS011;4274;52.012;8.448;2023-08-01T07:07:54;60.17;;;11.83;;
8474;SDS011;4274;52.012;8.448;2023-08-01T07:10:20;65.67;;;12.03;;
8474;SDS011;4274;52.012;8.448;2023-08-01T07:12:45;67.53;;;9.67;;
8474;SDS011;4274;52.012;8.448;2023-08-01T07:15:11;69.33;;;10.57;;
8474;SDS011;4274;52.012;8.448;2023-08-01T07:17:36;59.13;;;10.67;;
8474;SDS011;4274;52.012;8.448;2023-08-01T07:20:02;59.90;;;11.37;;
8474;SDS011;4274;52.012;8.448;2023-08-01T07:22:28;64.70;;;9.90;;
8474;SDS011;4274;52.012;8.448;2023-08-01T07:24:53;58.03;;;10.00;;
8474;SDS011;4274;52.012;8.448;2023-08-01T07:27:20;59.43;;;11.63;;
8474;SDS011;4274;52.012;8.448;2023-08-01T07:29:46;60.10;;;9.90;;
8474;SDS011;4274;52.012;8.448;2023-08-01T07:32:11;68.50;;;10.27;;
8474;SDS011;4274;52.012;8.448;2023-08-01T07:34:37;66.23;;;12.20;;
8474;SDS011;4274;52.012;8.448;2023-08-01T07:37:03;62.10;;;12.50;;
8474;SDS011;4274;52.012;8.448;2023-08-01T07:39:28;58.70;;;11.50;;
8474;SDS011;4274;52.012;8.448;2023-08-01T07:41:55;65.53;;;11.03;;
8474;SDS011;4274;52.012;8.448;2023-08-01T07:44:21;58.23;;;11.40;;
8474;SDS011;4274;52.012;8.448;2023-08-01T07:46:46;55.23;;;11.87;;
8474;SDS011;4274;52.012;8.448;2023-08-01T07:49:12;55.53;;;10.80;;
8474;SDS011;4274;52.012;8.448;2023-08-01T07:51:37;63.13;;;10.80;;
8474;SDS011;4274;52.012;8.448;2023-08-01T07:54:03;55.07;;;9.90;;
8474;SDS011;4274;52.012;8.448;2023-08-01T07:56:29;57.13;;;9.73;;
8474;SDS011;4274;52.012;8.448;2023-08-01T07:58:54;57.40;;;10.57;;
8474;SDS011;4274;52.012;8.448;2023-08-01T08:01:20;56.67;;;9.50;;
8474;SDS011;4274;52.012;8.448;2023-08-01T08:03:46;52.37;;;9.10;;
8474;SDS011;4274;52.012;8.448;2023-08-01T08:06:11;50.30;;;7.70;;
8474;SDS011;4274;52.012;8.448;2023-08-01T08:08:37;50.20;;;8.63;;
8474;SDS011;4274;52.012;8.448;2023-08-01T08:11:03;49.70;;;6.90;;
8474;SDS011;4274;52.012;8.448;2023-08-01T08:13:28;50.63;;;7.10;;
8474;SDS011;4274;52.012;8.448;2023-08-01T08:15:57;50.27;;;6.40;;
8474;SDS011;4274;52.012;8.448;2023-08-01T08:18:23;46.67;;;6.30;;
8474;SDS011;4274;52.012;8.448;2023-08-01T08:20:49;48.37;;;5.83;;
8474;SDS011;4274;52.012;8.448;2023-08-01T08:23:15;46.80;;;5.77;;
8474;SDS011;4274;52.012;8.448;2023-08-01T08:25:41;46.03;;;4.33;;
8474;SDS011;4274;52.012;8.448;2023-08-01T08:28:09;46.10;;;3.90;;
8474;SDS011;4274;52.012;8.448;2023-08-01T08:30:36;45.10;;;3.37;;
8474;SDS011;4274;52.012;8.448;2023-08-01T08:33:03;49.37;;;4.57;;
8474;SDS011;4274;52.012;8.448;2023-08-01T08:35:32;46.03;;;4.73;;
8474;SDS011;4274;52.012;8.448;2023-08-01T08:38:01;48.70;;;5.43;;
8474;SDS011;4274;52.012;8.448;2023-08-01T08:40:28;46.27;;;4.83;;
8474;SDS011;4274;52.012;8.448;2023-08-01T08:42:56;47.37;;;5.67;;
8474;SDS011;4274;52.012;8.448;2023-08-01T08:45:26;47.07;;;4.90;;
8474;SDS011;4274;52.012;8.448;2023-08-01T08:47:55;45.77;;;5.10;;
8474;SDS011;4274;52.012;8.448;2023-08-01T08:50:23;54.67;;;6.33;;
8474;SDS011;4274;52.012;8.448;2023-08-01T08:52:49;45.83;;;5.00;;
8474;SDS011;4274;52.012;8.448;2023-08-01T08:55:15;48.67;;;4.43;;
8474;SDS011;4274;52.012;8.448;2023-08-01T08:57:42;48.07;;;4.90;;
8474;SDS011;4274;52.012;8.448;2023-08-01T09:00:09;46.20;;;4.40;;
8474;SDS011;4274;52.012;8.448;2023-08-01T09:02:36;44.80;;;4.40;;
8474;SDS011;4274;52.012;8.448;2023-08-01T09:05:01;44.20;;;4.13;;
8474;SDS011;4274;52.012;8.448;2023-08-01T09:07:29;48.23;;;4.00;;
8474;SDS011;4274;52.012;8.448;2023-08-01T09:09:58;46.57;;;3.70;;
8474;SDS011;4274;52.012;8.448;2023-08-01T09:12:24;44.03;;;3.80;;
8474;SDS011;4274;52.012;8.448;2023-08-01T09:14:51;45.90;;;4.03;;
8474;SDS011;4274;52.012;8.448;2023-08-01T09:17:17;49.73;;;5.10;;
8474;SDS011;4274;52.012;8.448;2023-08-01T09:19:43;52.40;;;5.93;;
8474;SDS011;4274;52.012;8.448;2023-08-01T09:22:12;51.93;;;6.83;;
8474;SDS011;4274;52.012;8.448;2023-08-01T09:24:39;51.60;;;7.23;;
8474;SDS011;4274;52.012;8.448;2023-08-01T09:27:15;54.03;;;8.73;;
8474;SDS011;4274;52.012;8.448;2023-08-01T09:29:40;55.17;;;8.90;;
8474;SDS011;4274;52.012;8.448;2023-08-01T09:32:12;58.03;;;9.33;;
8474;SDS011;4274;52.012;8.448;2023-08-01T09:34:41;55.53;;;9.50;;
8474;SDS011;4274;52.012;8.448;2023-08-01T09:37:08;55.57;;;9.27;;
8474;SDS011;4274;52.012;8.448;2023-08-01T09:39:33;52.03;;;8.20;;
8474;SDS011;4274;52.012;8.448;2023-08-01T09:42:00;58.20;;;7.73;;
8474;SDS011;4274;52.012;8.448;2023-08-01T09:44:27;52.90;;;7.17;;
8474;SDS011;4274;52.012;8.448;2023-08-01T09:46:57;54.00;;;8.53;;
8474;SDS011;4274;52.012;8.448;2023-08-01T09:49:23;56.07;;;8.80;;
8474;SDS011;4274;52.012;8.448;2023-08-01T09:51:49;53.40;;;8.97;;
8474;SDS011;4274;52.012;8.448;2023-08-01T09:54:16;52.60;;;9.80;;
8474;SDS011;4274;52.012;8.448;2023-08-01T09:56:45;61.43;;;10.87;;
8474;SDS011;4274;52.012;8.448;2023-08-01T09:59:16;52.83;;;9.77;;
8474;SDS011;4274;52.012;8.448;2023-08-01T10:01:53;56.23;;;11.13;;
8474;SDS011;4274;52.012;8.448;2023-08-01T10:04:23;60.20;;;9.67;;
8474;SDS011;4274;52.012;8.448;2023-08-01T10:06:54;54.93;;;8.63;;
8474;SDS011;4274;52.012;8.448;2023-08-01T10:09:23;54.33;;;7.70;;
8474;SDS011;4274;52.012;8.448;2023-08-01T10:11:50;55.13;;;8.30;;
8474;SDS011;4274;52.012;8.448;2023-08-01T10:14:17;51.23;;;7.03;;
8474;SDS011;4274;52.012;8.448;2023-08-01T10:16:44;58.90;;;8.20;;
8474;SDS011;4274;52.012;8.448;2023-08-01T10:19:12;51.57;;;7.93;;
8474;SDS011;4274;52.012;8.448;2023-08-01T10:21:39;68.67;;;8.20;;
8474;SDS011;4274;52.012;8.448;2023-08-01T10:24:06;51.37;;;7.30;;
8474;SDS011;4274;52.012;8.448;2023-08-01T10:26:32;52.37;;;6.67;;
8474;SDS011;4274;52.012;8.448;2023-08-01T10:28:57;53.27;;;7.60;;
8474;SDS011;4274;52.012;8.448;2023-08-01T10:31:25;52.07;;;6.83;;
8474;SDS011;4274;52.012;8.448;2023-08-01T10:33:50;50.87;;;6.50;;
8474;SDS011;4274;52.012;8.448;2023-08-01T10:38:56;51.90;;;7.43;;
8474;SDS011;4274;52.012;8.448;2023-08-01T10:41:30;54.33;;;7.30;;
8474;SDS011;4274;52.012;8.448;2023-08-01T10:44:06;54.03;;;8.70;;
8474;SDS011;4274;52.012;8.448;2023-08-01T10:49:38;60.17;;;9.07;;
8474;SDS011;4274;52.012;8.448;2023-08-01T10:54:48;64.73;;;8.00;;
8474;SDS011;4274;52.012;8.448;2023-08-01T10:57:26;49.57;;;6.33;;
8474;SDS011;4274;52.012;8.448;2023-08-01T10:59:52;47.90;;;6.30;;
8474;SDS011;4274;52.012;8.448;2023-08-01T11:02:21;50.73;;;5.83;;
8474;SDS011;4274;52.012;8.448;2023-08-01T11:07:32;49.50;;;5.60;;
8474;SDS011;4274;52.012;8.448;2023-08-01T11:10:16;59.30;;;5.70;;
8474;SDS011;4274;52.012;8.448;2023-08-01T11:12:43;49.77;;;5.03;;
8474;SDS011;4274;52.012;8.448;2023-08-01T11:15:09;46.57;;;4.73;;
8474;SDS011;4274;52.012;8.448;2023-08-01T11:17:37;47.73;;;4.30;;
8474;SDS011;4274;52.012;8.448;2023-08-01T11:20:08;51.73;;;5.30;;
8474;SDS011;4274;52.012;8.448;2023-08-01T11:22:35;49.97;;;4.23;;
8474;SDS011;4274;52.012;8.448;2023-08-01T11:25:02;46.57;;;3.77;;
8474;SDS011;4274;52.012;8.448;2023-08-01T11:27:28;47.60;;;3.80;;
8474;SDS011;4274;52.012;8.448;2023-08-01T11:29:54;52.23;;;4.43;;
8474;SDS011;4274;52.012;8.448;2023-08-01T11:32:20;53.37;;;4.97;;
8474;SDS011;4274;52.012;8.448;2023-08-01T11:34:46;54.63;;;5.50;;
8474;SDS011;4274;52.012;8.448;2023-08-01T11:37:14;53.70;;;5.70;;
8474;SDS011;4274;52.012;8.448;2023-08-01T11:39:40;55.07;;;6.10;;
8474;SDS011;4274;52.012;8.448;2023-08-01T11:42:06;47.73;;;6.67;;
8474;SDS011;4274;52.012;8.448;2023-08-01T11:44:32;47.40;;;5.90;;
8474;SDS011;4274;52.012;8.448;2023-08-01T11:46:57;45.57;;;4.97;;
8474;SDS011;4274;52.012;8.448;2023-08-01T11:49:23;48.10;;;4.90;;
8474;SDS011;4274;52.012;8.448;2023-08-01T11:51:51;49.43;;;4.63;;
8474;SDS011;4274;52.012;8.448;2023-08-01T11:54:16;50.87;;;4.53;;
8474;SDS011;4274;52.012;8.448;2023-08-01T11:56:42;44.90;;;4.13;;
8474;SDS011;4274;52.012;8.448;2023-08-01T11:59:12;47.77;;;5.00;;
8474;SDS011;4274;52.012;8.448;2023-08-01T12:01:43;47.47;;;5.00;;
8474;SDS011;4274;52.012;8.448;2023-08-01T12:04:10;47.83;;;4.40;;
8474;SDS011;4274;52.012;8.448;2023-08-01T12:06:35;45.97;;;4.00;;
8474;SDS011;4274;52.012;8.448;2023-08-01T12:09:08;46.37;;;4.10;;
8474;SDS011;4274;52.012;8.448;2023-08-01T12:11:38;49.17;;;4.17;;
8474;SDS011;4274;52.012;8.448;2023-08-01T12:14:05;48.97;;;4.40;;
8474;SDS011;4274;52.012;8.448;2023-08-01T12:16:32;48.57;;;4.20;;
8474;SDS011;4274;52.012;8.448;2023-08-01T12:18:57;53.43;;;4.70;;
8474;SDS011;4274;52.012;8.448;2023-08-01T12:21:23;48.23;;;4.63;;
8474;SDS011;4274;52.012;8.448;2023-08-01T12:23:49;51.03;;;4.17;;
8474;SDS011;4274;52.012;8.448;2023-08-01T12:26:14;51.30;;;4.53;;
8474;SDS011;4274;52.012;8.448;2023-08-01T12:28:40;48.83;;;3.80;;
8474;SDS011;4274;52.012;8.448;2023-08-01T12:31:05;49.40;;;4.27;;
8474;SDS011;4274;52.012;8.448;2023-08-01T12:33:32;54.57;;;4.40;;
8474;SDS011;4274;52.012;8.448;2023-08-01T12:35:59;47.00;;;4.00;;
8474;SDS011;4274;52.012;8.448;2023-08-01T12:38:25;45.73;;;3.70;;
8474;SDS011;4274;52.012;8.448;2023-08-01T12:40:51;45.97;;;3.80;;
8474;SDS011;4274;52.012;8.448;2023-08-01T12:43:16;47.70;;;3.73;;
8474;SDS011;4274;52.012;8.448;2023-08-01T12:45:42;51.50;;;4.23;;
8474;SDS011;4274;52.012;8.448;2023-08-01T12:48:08;47.40;;;3.90;;
8474;SDS011;4274;52.012;8.448;2023-08-01T12:50:34;48.00;;;4.40;;
8474;SDS011;4274;52.012;8.448;2023-08-01T12:52:59;48.47;;;4.43;;
8474;SDS011;4274;52.012;8.448;2023-08-01T12:55:25;53.47;;;4.33;;
8474;SDS011;4274;52.012;8.448;2023-08-01T12:57:50;48.70;;;4.10;;
8474;SDS011;4274;52.012;8.448;2023-08-01T13:00:16;47.43;;;4.00;;
8474;SDS011;4274;52.012;8.448;2023-08-01T13:02:42;48.10;;;3.10;;
8474;SDS011;4274;52.012;8.448;2023-08-01T13:05:08;45.37;;;3.03;;
8474;SDS011;4274;52.012;8.448;2023-08-01T13:07:34;46.20;;;3.83;;
8474;SDS011;4274;52.012;8.448;2023-08-01T13:10:02;46.07;;;3.57;;
8474;SDS011;4274;52.012;8.448;2023-08-01T13:12:28;46.67;;;3.70;;
8474;SDS011;4274;52.012;8.448;2023-08-01T13:14:54;49.00;;;3.83;;
8474;SDS011;4274;52.012;8.448;2023-08-01T13:17:19;46.80;;;3.97;;
8474;SDS011;4274;52.012;8.448;2023-08-01T13:19:45;49.30;;;3.10;;
8474;SDS011;4274;52.012;8.448;2023-08-01T13:22:10;43.90;;;2.93;;
8474;SDS011;4274;52.012;8.448;2023-08-01T13:24:36;45.30;;;3.10;;
8474;SDS011;4274;52.012;8.448;2023-08-01T13:27:01;44.80;;;3.10;;
8474;SDS011;4274;52.012;8.448;2023-08-01T13:29:27;48.20;;;2.87;;
8474;SDS011;4274;52.012;8.448;2023-08-01T13:31:53;46.27;;;2.73;;
8474;SDS011;4274;52.012;8.448;2023-08-01T13:34:19;47.37;;;3.23;;
8474;SDS011;4274;52.012;8.448;2023-08-01T13:36:44;47.20;;;3.10;;
8474;SDS011;4274;52.012;8.448;2023-08-01T13:39:10;47.50;;;2.70;;
8474;SDS011;4274;52.012;8.448;2023-08-01T13:41:35;50.23;;;2.97;;
8474;SDS011;4274;52.012;8.448;2023-08-01T13:44:01;44.83;;;2.93;;
8474;SDS011;4274;52.012;8.448;2023-08-01T13:46:27;48.07;;;3.43;;
8474;SDS011;4274;52.012;8.448;2023-08-01T13:48:52;50.50;;;2.80;;
8474;SDS011;4274;52.012;8.448;2023-08-01T13:51:18;48.63;;;2.90;;
8474;SDS011;4274;52.012;8.448;2023-08-01T13:53:44;45.10;;;3.07;;
8474;SDS011;4274;52.012;8.448;2023-08-01T13:56:10;46.50;;;3.30;;
8474;SDS011;4274;52.012;8.448;2023-08-01T13:58:37;48.87;;;3.10;;
8474;SDS011;4274;52.012;8.448;2023-08-01T14:01:07;45.20;;;3.00;;
8474;SDS011;4274;52.012;8.448;2023-08-01T14:03:37;48.93;;;3.63;;
8474;SDS011;4274;52.012;8.448;2023-08-01T14:06:07;43.83;;;2.67;;
8474;SDS011;4274;52.012;8.448;2023-08-01T14:08:34;47.57;;;3.40;;
8474;SDS011;4274;52.012;8.448;2023-08-01T14:11:01;49.43;;;3.00;;
8474;SDS011;4274;52.012;8.448;2023-08-01T14:13:28;44.80;;;3.07;;
8474;SDS011;4274;52.012;8.448;2023-08-01T14:15:53;46.13;;;3.23;;
8474;SDS011;4274;52.012;8.448;2023-08-01T14:18:19;46.63;;;3.23;;
8474;SDS011;4274;52.012;8.448;2023-08-01T14:20:44;48.47;;;3.47;;
8474;SDS011;4274;52.012;8.448;2023-08-01T14:23:10;47.37;;;3.53;;
8474;SDS011;4274;52.012;8.448;2023-08-01T14:25:35;46.00;;;4.30;;
8474;SDS011;4274;52.012;8.448;2023-08-01T14:28:01;48.73;;;3.60;;
8474;SDS011;4274;52.012;8.448;2023-08-01T14:30:27;49.73;;;3.70;;
8474;SDS011;4274;52.012;8.448;2023-08-01T14:33:02;48.97;;;3.73;;
8474;SDS011;4274;52.012;8.448;2023-08-01T14:35:30;46.80;;;3.97;;
8474;SDS011;4274;52.012;8.448;2023-08-01T14:37:56;44.57;;;3.73;;
8474;SDS011;4274;52.012;8.448;2023-08-01T14:40:21;47.03;;;3.90;;
8474;SDS011;4274;52.012;8.448;2023-08-01T14:42:48;49.27;;;4.30;;
8474;SDS011;4274;52.012;8.448;2023-08-01T14:45:13;47.10;;;3.60;;
8474;SDS011;4274;52.012;8.448;2023-08-01T14:47:42;46.00;;;3.40;;
8474;SDS011;4274;52.012;8.448;2023-08-01T14:50:12;46.47;;;3.50;;
8474;SDS011;4274;52.012;8.448;2023-08-01T14:52:38;52.93;;;3.80;;
8474;SDS011;4274;52.012;8.448;2023-08-01T14:55:04;50.30;;;4.07;;
8474;SDS011;4274;52.012;8.448;2023-08-01T14:57:30;47.67;;;3.70;;
8474;SDS011;4274;52.012;8.448;2023-08-01T14:59:56;47.43;;;4.00;;
8474;SDS011;4274;52.012;8.448;2023-08-01T15:02:22;47.73;;;3.60;;
8474;SDS011;4274;52.012;8.448;2023-08-01T15:04:54;45.97;;;3.70;;
8474;SDS011;4274;52.012;8.448;2023-08-01T15:07:21;46.50;;;3.67;;